WetterOnline ( https://www.wetteronline.de )

Wetter aktuell Gera

Aktuelles Wetter: Gera/Leumnitz (311m)

6-stündlich | Neueste Meldungen
Ortszeit Temperatur Wetter
Mo, 17.06. 2:00 14.8° C wolkig
So, 16.06. 20:00 20.1° C wolkig
So, 16.06. 14:00 21.5° C wolkig
So, 16.06. 8:00 15.4° C wolkenlos
So, 16.06. 2:00 11.0° C wolkenlos
Sa, 15.06. 20:00 18.7° C fast wolkenlos
Sa, 15.06. 14:00 19.8° C fast wolkenlos
Sa, 15.06. 8:00 14.6° C leichter Regen
Ortszeit Temperatur Wetter
Mo, 17.06. 2:00 14.8° C wolkig
Mo, 17.06. 1:30 15.2° C bewölkt
Mo, 17.06. 1:20 15.2° C bewölkt
Mo, 17.06. 1:10 15.2° C bedeckt
Mo, 17.06. 1:00 15.6° C bewölkt
Mo, 17.06. 0:50 15.6° C bewölkt
Mo, 17.06. 0:30 15.9° C bewölkt
Mo, 17.06. 0:00 16.2° C bewölkt
So, 16.06. 23:30 16.5° C bewölkt
So, 16.06. 23:00 17.0° C bewölkt
Ortszeit Relative Feuchte Sichtweite
Mo, 17.06. 2:00 82% 60 km
So, 16.06. 20:00 51% >70 km
So, 16.06. 14:00 46% 65 km
So, 16.06. 8:00 67% 55 km
So, 16.06. 2:00 81% 65 km
Sa, 15.06. 20:00 48% >70 km
Sa, 15.06. 14:00 53% >70 km
Sa, 15.06. 8:00 84% 12 km
Ortszeit Relative Feuchte Sichtweite
Mo, 17.06. 2:00 82% 60 km
Mo, 17.06. 1:30 81% 65 km
Mo, 17.06. 1:20 81% -
Mo, 17.06. 1:10 81% -
Mo, 17.06. 1:00 78% 65 km
Mo, 17.06. 0:50 78% -
Mo, 17.06. 0:30 76% 60 km
Mo, 17.06. 0:00 73% 65 km
So, 16.06. 23:30 71% 60 km
So, 16.06. 23:00 69% 55 km
Ortszeit Niederschlagsmenge Niederschlagsart
Mo, 17.06. 2:00 0.1 l/m2 in 6 Std. Regen
So, 16.06. 20:00 0.0 l/m2 in 12 Std. -
So, 16.06. 14:00 0.0 l/m2 in 6 Std. -
So, 16.06. 8:00 0.0 l/m2 in 12 Std. -
So, 16.06. 2:00 0.0 l/m2 in 6 Std. -
Sa, 15.06. 20:00 0.5 l/m2 in 12 Std. -
Sa, 15.06. 14:00 0.5 l/m2 in 6 Std. Regen
Sa, 15.06. 8:00 0.3 l/m2 in 12 Std. Regen
Ortszeit Niederschlagsmenge Niederschlagsart
Mo, 17.06. 2:00 keine Meldung -
Mo, 17.06. 1:30 0.0 l/m2 in 30 Min -
Mo, 17.06. 1:20 keine Meldung -
Mo, 17.06. 1:10 keine Meldung -
Mo, 17.06. 1:00 <0.05 l/m2 in 1 Std. Regen
Mo, 17.06. 0:50 keine Meldung -
Mo, 17.06. 0:30 0.0 l/m2 in 30 Min -
Mo, 17.06. 0:00 <0.05 l/m2 in 1 Std. Regen
So, 16.06. 23:30 0.0 l/m2 in 30 Min -
So, 16.06. 23:00 0.0 l/m2 in 1 Std. -
Ortszeit Stärke Spitze Richtung
km/h Bft. km/h Grad Sektor
Mo, 17.06. 2:00 11 2 25 180° S
So, 16.06. 20:00 14 3 43 230° SW
So, 16.06. 14:00 22 4 40 230° SW
So, 16.06. 8:00 11 2 22 210° SW
So, 16.06. 2:00 13 3 35 190° S
Sa, 15.06. 20:00 14 3 61 240° SW
Sa, 15.06. 14:00 32 5 61 240° SW
Sa, 15.06. 8:00 18 3 32 220° SW
Ortszeit Stärke Spitze Richtung
km/h Bft. km/h Grad Sektor
Mo, 17.06. 2:00 11 2 25 180° S
Mo, 17.06. 1:30 11 2 14 180° S
Mo, 17.06. 1:20 11 2 - 180° S
Mo, 17.06. 1:10 11 2 - 190° S
Mo, 17.06. 1:00 11 2 14 170° S
Mo, 17.06. 0:50 11 2 - 170° S
Mo, 17.06. 0:30 9 2 13 180° S
Mo, 17.06. 0:00 9 2 15 210° SW
So, 16.06. 23:30 9 2 15 210° SW
So, 16.06. 23:00 9 2 24 210° SW
Ortszeit Untergrenze Bedeckung Gattung
total tief tief mittel hoch
Mo, 17.06. 2:00 1800 m 7/8 1/8 - - -
So, 16.06. 20:00 3600 m 5/8 5/8 - - -
So, 16.06. 14:00 1500 m 5/8 5/8 - - -
So, 16.06. 8:00 - 0/8 0/8 - - -
So, 16.06. 2:00 - 0/8 0/8 - - -
Sa, 15.06. 20:00 2400 m 1/8 1/8 - - -
Sa, 15.06. 14:00 1320 m 1/8 1/8 - - -
Sa, 15.06. 8:00 720 m 8/8 8/8 - - -
Ortszeit Bedeckungsgrad in Achtel und Wolkenuntergrenze
Mo, 17.06. 2:00 1(1800m) 7(3600m) 7(5400m)
Mo, 17.06. 1:30 5(1500m) 7(2400m) 7(4200m)
Mo, 17.06. 1:20 5(1500m) 7(2400m) 7(4200m)
Mo, 17.06. 1:10 8
Mo, 17.06. 1:00 4(1500m) 8(3300m) 8(3900m)
Mo, 17.06. 0:50 4(1500m) 8(3300m) 8(3900m)
Mo, 17.06. 0:30 7(1800m) 8(3300m) 8(4200m)
Mo, 17.06. 0:00 5(2100m) 8(3000m) 8(5700m)
So, 16.06. 23:30 4(1800m) 8(3000m) 8(5400m)
So, 16.06. 23:00 6(2400m) 8(3000m) 8(6000m)
Ortszeit Luftdruck NN (hPa) Tendenz (hPa in 3 Std.)
Mo, 17.06. 2:00 1012 + 0,7
So, 16.06. 20:00 1009 - 0,1
So, 16.06. 14:00 1010 - 0,6
So, 16.06. 8:00 1011 + 0,1
So, 16.06. 2:00 1011 + 0,2
Sa, 15.06. 20:00 1009 + 0,6
Sa, 15.06. 14:00 1008 + 0,9
Sa, 15.06. 8:00 1007 + 0,6
Ortszeit Luftdruck NN (hPa) Tendenz (hPa in 3 Std.)
Mo, 17.06. 2:00 1012 + 0,7
Mo, 17.06. 1:30 1012 + 0,9
Mo, 17.06. 1:20 1012 keine Meldung
Mo, 17.06. 1:10 1012 keine Meldung
Mo, 17.06. 1:00 1012 + 0,9
Mo, 17.06. 0:50 1012 keine Meldung
Mo, 17.06. 0:30 1012 + 1,2
Mo, 17.06. 0:00 1012 + 1,4
So, 16.06. 23:30 1011 + 1,4
So, 16.06. 23:00 1011 + 1,3
Ortszeit Schneehöhe (cm)
Mo, 17.06. 2:00 0
So, 16.06. 20:00 0
So, 16.06. 14:00 0
So, 16.06. 8:00 0
So, 16.06. 2:00 0
Sa, 15.06. 20:00 0
Sa, 15.06. 14:00 0
Sa, 15.06. 8:00 0
Ortszeit Schneehöhe (cm)
Mo, 17.06. 2:00 0
Mo, 17.06. 1:30 0
Mo, 17.06. 1:20 0
Mo, 17.06. 1:10 -
Mo, 17.06. 1:00 0
Mo, 17.06. 0:50 0
Mo, 17.06. 0:30 0
Mo, 17.06. 0:00 0
So, 16.06. 23:30 0
So, 16.06. 23:00 0
Link zu dieser Seite / Seite empfehlen

Das Wetter in ...